Aviation Digital Data Service (ADDS)

Output produced by METARs form (0326 UTC 22 November 2017)
found at http://aviationweather.gov/adds/metars/
 
KSHV 212321Z 2200/2224 VRB05KT P6SM BKN025 OVC040 
     TEMPO 2202/2206 BKN040 
     FM220600 01008KT P6SM SCT040 SCT250 
     FM221000 01012KT P6SM SKC 
     FM222100 36010KT P6SM SCT250